Snow/Ice From: 17-12-2017 10:00 Until: 18-12-2017 06:00 warning for: Snow/Ice Level: Yellow info button

Although rather usual in this region, locally or potentially dangerous phenomena are expected. (such as local winds, summer thunderstorms, rising streams or high waves) Be aware and pay attention to the latest weather updates, especially if you carry out activities exposed to weather or close to a stream or shoreline. 


Meteo18 Weather Cam more information Meteo18 Weather Cam


Thunder radar more information blitzortung!


warning for Snow/Ice more information rain snow radar


Visit our other weather sites:

Template documentation
and downloads

And another site



Weather Underground History page Text

Daily Summary for February 3, 2017 Units:  Metric    English   Both
« Previous Day
Next Day »
Daily Weekly Monthly Yearly Custom
  High: Low: Average:
Temperature: 9.2 °C 4.0 °C 7.1 °C
Dew Point: 7.0 °C 3.2 °C 5.2 °C
Humidity: 96 % 76 % 88 %
Wind Speed: 43.4 km/h 0.0 km/h 12.1 km/h
Wind Gust: 51.5 km/h - -
Wind:- - SSW
Pressure: 1008.4 hPa 1001.9 hPa -
Precipitation: 2.5 mm    
Historical Graphs
 
 
Tabular Data for February 3, 2017
Time Temperature Dew Point Pressure Wind Wind Speed Wind Gust Humidity Rainfall Rate (Hourly)
00:02 7.9 °C 7.0 °C 1007.3 hPa SSW 9.7 km/h 12.9 km/h 94 % 0.3 mm
00:07 7.9 °C 7.0 °C 1007.3 hPa SSW 11.3 km/h 14.5 km/h 94 % 0.3 mm
00:12 7.9 °C 7.0 °C 1007.3 hPa SW 12.9 km/h 14.5 km/h 94 % 0.3 mm
00:17 7.8 °C 6.9 °C 1007.7 hPa SSW 8.0 km/h 16.1 km/h 94 % 0.3 mm
00:22 7.8 °C 6.9 °C 1007.7 hPa SSW 12.9 km/h 16.1 km/h 94 % 0.3 mm
00:27 7.8 °C 6.9 °C 1007.7 hPa SSW 9.7 km/h 16.1 km/h 94 % 0.3 mm
00:32 7.8 °C 6.9 °C 1007.7 hPa SW 8.0 km/h 17.7 km/h 94 % 0.3 mm
00:37 7.8 °C 6.9 °C 1007.7 hPa SW 8.0 km/h 17.7 km/h 94 % 0.3 mm
00:42 7.8 °C 6.9 °C 1007.7 hPa SW 17.7 km/h 17.7 km/h 94 % 0.5 mm
00:47 7.8 °C 6.9 °C 1008.0 hPa SSW 8.0 km/h 17.7 km/h 94 % 0.3 mm
00:52 7.8 °C 6.9 °C 1008.0 hPa SW 11.3 km/h 17.7 km/h 94 % 0.3 mm
00:57 7.8 °C 6.9 °C 1008.0 hPa SW 12.9 km/h 17.7 km/h 94 % 0.3 mm
01:02 7.8 °C 6.9 °C 1008.0 hPa SSW 9.7 km/h 19.3 km/h 94 % 0.3 mm
01:07 7.8 °C 6.9 °C 1008.0 hPa SW 8.0 km/h 19.3 km/h 94 % 0.3 mm
01:12 7.8 °C 6.9 °C 1008.0 hPa SSW 12.9 km/h 19.3 km/h 94 % 0.3 mm
01:17 7.8 °C 6.9 °C 1008.0 hPa SSW 9.7 km/h 17.7 km/h 94 % 0.3 mm
01:22 7.7 °C 6.8 °C 1008.0 hPa SSW 9.7 km/h 17.7 km/h 94 % 0.3 mm
01:27 7.7 °C 6.8 °C 1008.0 hPa SSW 12.9 km/h 17.7 km/h 94 % 0.3 mm
01:32 7.7 °C 6.8 °C 1008.0 hPa SW 11.3 km/h 16.1 km/h 94 % 0.3 mm
01:37 7.7 °C 6.8 °C 1008.0 hPa SW 12.9 km/h 17.7 km/h 94 % 0.3 mm
01:42 7.7 °C 6.8 °C 1008.0 hPa SW 6.4 km/h 17.7 km/h 94 % 0.0 mm
01:47 7.7 °C 6.8 °C 1008.0 hPa South 11.3 km/h 17.7 km/h 94 % 0.0 mm
01:52 7.7 °C 6.8 °C 1008.0 hPa SSW 11.3 km/h 17.7 km/h 94 % 0.0 mm
01:57 7.7 °C 6.8 °C 1008.0 hPa SW 16.1 km/h 17.7 km/h 94 % 0.0 mm
02:02 7.8 °C 6.9 °C 1008.0 hPa SW 17.7 km/h 20.9 km/h 94 % 0.0 mm
02:07 7.8 °C 6.9 °C 1008.4 hPa SSW 11.3 km/h 20.9 km/h 94 % 0.0 mm
02:12 7.8 °C 6.7 °C 1008.0 hPa SW 17.7 km/h 20.9 km/h 93 % 0.0 mm
02:17 7.8 °C 6.7 °C 1008.0 hPa SW 11.3 km/h 20.9 km/h 93 % 0.0 mm
02:22 7.9 °C 6.8 °C 1008.0 hPa SW 14.5 km/h 22.5 km/h 93 % 0.0 mm
02:27 7.9 °C 6.8 °C 1008.0 hPa SSW 9.7 km/h 22.5 km/h 93 % 0.0 mm
02:32 7.8 °C 6.7 °C 1008.0 hPa SSW 12.9 km/h 24.1 km/h 93 % 0.0 mm
02:37 7.8 °C 6.7 °C 1008.0 hPa SSW 9.7 km/h 24.1 km/h 93 % 0.0 mm
02:42 7.8 °C 6.7 °C 1008.0 hPa SSW 9.7 km/h 20.9 km/h 93 % 0.0 mm
02:47 7.8 °C 6.7 °C 1007.7 hPa SSW 9.7 km/h 19.3 km/h 93 % 0.0 mm
02:52 7.8 °C 6.7 °C 1008.0 hPa SW 11.3 km/h 19.3 km/h 93 % 0.0 mm
03:02 7.8 °C 6.6 °C 1007.7 hPa SSW 9.7 km/h 19.3 km/h 92 % 0.0 mm
03:07 7.9 °C 6.7 °C 1007.7 hPa SW 9.7 km/h 19.3 km/h 92 % 0.0 mm
03:12 7.9 °C 6.5 °C 1007.7 hPa SW 16.1 km/h 20.9 km/h 91 % 0.0 mm
03:17 8.0 °C 6.6 °C 1007.7 hPa SW 8.0 km/h 20.9 km/h 91 % 0.0 mm
03:22 7.9 °C 6.5 °C 1007.7 hPa SW 11.3 km/h 20.9 km/h 91 % 0.0 mm
03:27 8.0 °C 6.6 °C 1007.7 hPa SW 16.1 km/h 22.5 km/h 91 % 0.0 mm
03:32 8.0 °C 6.6 °C 1007.7 hPa South 1.6 km/h 22.5 km/h 91 % 0.0 mm
03:37 8.0 °C 6.6 °C 1007.7 hPa SW 9.7 km/h 22.5 km/h 91 % 0.0 mm
03:42 7.9 °C 6.7 °C 1008.0 hPa SW 8.0 km/h 19.3 km/h 92 % 0.0 mm
03:47 7.9 °C 6.7 °C 1008.0 hPa SSW 12.9 km/h 19.3 km/h 92 % 0.0 mm
03:52 7.8 °C 6.6 °C 1008.0 hPa SW 14.5 km/h 19.3 km/h 92 % 0.0 mm
03:57 7.7 °C 6.6 °C 1007.7 hPa SSW 8.0 km/h 19.3 km/h 93 % 0.0 mm
04:02 7.7 °C 6.5 °C 1008.0 hPa SW 11.3 km/h 19.3 km/h 92 % 0.0 mm
04:07 7.7 °C 6.5 °C 1007.7 hPa SW 11.3 km/h 19.3 km/h 92 % 0.0 mm
04:12 7.7 °C 6.5 °C 1008.0 hPa SW 8.0 km/h 19.3 km/h 92 % 0.0 mm
04:17 7.6 °C 6.4 °C 1008.0 hPa SSW 8.0 km/h 19.3 km/h 92 % 0.0 mm
04:22 7.7 °C 6.5 °C 1008.0 hPa SSW 16.1 km/h 19.3 km/h 92 % 0.0 mm
04:27 7.8 °C 6.4 °C 1008.0 hPa SSW 16.1 km/h 20.9 km/h 91 % 0.0 mm
04:32 7.8 °C 6.4 °C 1008.0 hPa SW 17.7 km/h 20.9 km/h 91 % 0.0 mm
04:37 7.8 °C 6.3 °C 1008.0 hPa SSW 4.8 km/h 22.5 km/h 90 % 0.0 mm
04:42 7.8 °C 6.3 °C 1008.0 hPa SW 17.7 km/h 22.5 km/h 90 % 0.0 mm
04:47 7.8 °C 6.3 °C 1008.0 hPa SW 19.3 km/h 24.1 km/h 90 % 0.0 mm
04:52 7.7 °C 6.2 °C 1008.0 hPa SW 16.1 km/h 24.1 km/h 90 % 0.0 mm
04:57 7.6 °C 6.1 °C 1008.4 hPa SW 14.5 km/h 24.1 km/h 90 % 0.0 mm
05:02 7.5 °C 6.0 °C 1008.4 hPa SW 4.8 km/h 20.9 km/h 90 % 0.0 mm
05:12 7.3 °C 5.9 °C 1008.4 hPa SW 12.9 km/h 20.9 km/h 91 % 0.0 mm
05:17 7.3 °C 5.8 °C 1008.4 hPa SW 6.4 km/h 19.3 km/h 90 % 0.0 mm
05:22 7.3 °C 5.8 °C 1008.0 hPa SW 9.7 km/h 19.3 km/h 90 % 0.0 mm
05:27 7.2 °C 5.7 °C 1008.0 hPa SSW 9.7 km/h 19.3 km/h 90 % 0.0 mm
05:32 6.9 °C 5.5 °C 1008.0 hPa SSW 6.4 km/h 17.7 km/h 91 % 0.0 mm
05:37 6.7 °C 5.3 °C 1008.4 hPa SSW 4.8 km/h 17.7 km/h 91 % 0.0 mm
05:42 6.5 °C 5.1 °C 1008.4 hPa SSW 6.4 km/h 17.7 km/h 91 % 0.0 mm
05:47 6.3 °C 5.1 °C 1008.4 hPa SSW 11.3 km/h 14.5 km/h 92 % 0.0 mm
05:52 6.3 °C 5.1 °C 1008.4 hPa SSW 9.7 km/h 14.5 km/h 92 % 0.0 mm
05:57 6.2 °C 5.0 °C 1008.4 hPa SW 6.4 km/h 12.9 km/h 92 % 0.0 mm
06:02 6.2 °C 5.2 °C 1008.4 hPa SSW 9.7 km/h 12.9 km/h 93 % 0.0 mm
06:07 6.2 °C 5.2 °C 1008.4 hPa SW 11.3 km/h 14.5 km/h 93 % 0.0 mm
06:12 6.3 °C 5.3 °C 1008.4 hPa SSW 8.0 km/h 14.5 km/h 93 % 0.0 mm
06:17 6.3 °C 5.3 °C 1008.4 hPa SW 6.4 km/h 16.1 km/h 93 % 0.0 mm
06:22 6.2 °C 5.2 °C 1008.4 hPa SSW 6.4 km/h 16.1 km/h 93 % 0.0 mm
06:27 6.2 °C 5.2 °C 1008.4 hPa SSW 3.2 km/h 12.9 km/h 93 % 0.0 mm
06:32 6.1 °C 5.1 °C 1008.4 hPa SSW 4.8 km/h 11.3 km/h 93 % 0.0 mm
06:37 6.0 °C 5.0 °C 1008.4 hPa SSW 4.8 km/h 9.7 km/h 93 % 0.0 mm
06:42 5.9 °C 4.9 °C 1008.4 hPa SW 3.2 km/h 9.7 km/h 93 % 0.0 mm
06:52 5.7 °C 4.7 °C 1008.4 hPa SSW 4.8 km/h 9.7 km/h 93 % 0.0 mm
06:57 5.6 °C 4.6 °C 1008.4 hPa South 1.6 km/h 9.7 km/h 93 % 0.0 mm
07:02 5.4 °C 4.4 °C 1008.0 hPa SSW 1.6 km/h 6.4 km/h 93 % 0.0 mm
07:07 5.3 °C 4.3 °C 1008.0 hPa South 3.2 km/h 6.4 km/h 93 % 0.0 mm
07:12 5.2 °C 4.2 °C 1008.0 hPa South 1.6 km/h 6.4 km/h 93 % 0.0 mm
07:17 5.1 °C 4.1 °C 1008.0 hPa Calm   6.4 km/h 93 % 0.0 mm
07:22 4.9 °C 3.9 °C 1008.0 hPa Calm   6.4 km/h 93 % 0.0 mm
07:27 4.8 °C 3.9 °C 1007.7 hPa SSE 1.6 km/h 3.2 km/h 94 % 0.0 mm
07:32 4.8 °C 3.9 °C 1007.7 hPa Calm   6.4 km/h 94 % 0.0 mm
07:37 4.7 °C 3.8 °C 1007.7 hPa Calm   6.4 km/h 94 % 0.0 mm
07:42 4.6 °C 3.7 °C 1007.7 hPa Calm   4.8 km/h 94 % 0.0 mm
07:47 4.4 °C 3.5 °C 1007.7 hPa Calm   1.6 km/h 94 % 0.0 mm
07:52 4.3 °C 3.4 °C 1007.7 hPa Calm   1.6 km/h 94 % 0.0 mm
07:57 4.1 °C 3.2 °C 1007.7 hPa SSE 1.6 km/h 1.6 km/h 94 % 0.0 mm
08:02 4.1 °C 3.4 °C 1007.7 hPa SE 3.2 km/h 3.2 km/h 95 % 0.0 mm
08:12 4.1 °C 3.4 °C 1007.7 hPa Calm   6.4 km/h 95 % 0.0 mm
08:17 4.1 °C 3.4 °C 1007.7 hPa SE 3.2 km/h 6.4 km/h 95 % 0.0 mm
08:22 4.0 °C 3.3 °C 1007.7 hPa SE 1.6 km/h 4.8 km/h 95 % 0.0 mm
08:27 4.0 °C 3.3 °C 1007.7 hPa Calm   4.8 km/h 95 % 0.0 mm
08:32 4.1 °C 3.5 °C 1007.3 hPa East 3.2 km/h 8.0 km/h 96 % 0.0 mm
08:37 4.1 °C 3.5 °C 1007.3 hPa SE 1.6 km/h 8.0 km/h 96 % 0.0 mm
08:42 4.1 °C 3.4 °C 1007.3 hPa Calm   8.0 km/h 95 % 0.0 mm
08:47 4.2 °C 3.5 °C 1007.3 hPa ESE 3.2 km/h 8.0 km/h 95 % 0.0 mm
08:52 4.3 °C 3.6 °C 1007.3 hPa SE 1.6 km/h 8.0 km/h 95 % 0.0 mm
09:02 4.7 °C 4.0 °C 1007.0 hPa SE 1.6 km/h 8.0 km/h 95 % 0.0 mm
09:07 4.9 °C 4.2 °C 1007.0 hPa South 4.8 km/h 8.0 km/h 95 % 0.0 mm
09:12 5.2 °C 4.3 °C 1007.0 hPa SE 6.4 km/h 8.0 km/h 94 % 0.0 mm
09:17 5.3 °C 4.3 °C 1007.0 hPa SSE 3.2 km/h 12.9 km/h 93 % 0.0 mm
09:22 5.5 °C 4.3 °C 1007.0 hPa South 4.8 km/h 12.9 km/h 92 % 0.0 mm
09:32 5.9 °C 4.5 °C 1007.0 hPa SE 3.2 km/h 19.3 km/h 91 % 0.0 mm
09:37 6.1 °C 4.6 °C 1007.0 hPa SSE 6.4 km/h 19.3 km/h 90 % 0.0 mm
09:42 6.1 °C 4.6 °C 1006.7 hPa SSE 11.3 km/h 16.1 km/h 90 % 0.0 mm
09:47 6.3 °C 4.6 °C 1006.7 hPa SW 9.7 km/h 17.7 km/h 89 % 0.0 mm
09:52 6.4 °C 4.7 °C 1007.0 hPa SSE 9.7 km/h 17.7 km/h 89 % 0.0 mm
09:57 6.6 °C 4.8 °C 1007.0 hPa South 4.8 km/h 17.7 km/h 88 % 0.0 mm
10:02 6.6 °C 4.8 °C 1007.0 hPa South 14.5 km/h 16.1 km/h 88 % 0.0 mm
10:07 6.7 °C 4.9 °C 1007.0 hPa SSE 9.7 km/h 17.7 km/h 88 % 0.0 mm
10:12 6.8 °C 5.0 °C 1007.0 hPa South 14.5 km/h 17.7 km/h 88 % 0.0 mm
10:17 6.9 °C 4.9 °C 1007.0 hPa SSE 9.7 km/h 20.9 km/h 87 % 0.0 mm
10:22 7.1 °C 5.1 °C 1007.0 hPa ESE 14.5 km/h 20.9 km/h 87 % 0.0 mm
10:27 7.3 °C 5.1 °C 1006.7 hPa SSE 14.5 km/h 20.9 km/h 86 % 0.0 mm
10:32 7.5 °C 5.3 °C 1006.7 hPa ESE 9.7 km/h 17.7 km/h 86 % 0.0 mm
10:37 7.7 °C 5.2 °C 1006.7 hPa SSE 9.7 km/h 17.7 km/h 84 % 0.0 mm
10:42 7.9 °C 5.5 °C 1006.7 hPa SE 6.4 km/h 19.3 km/h 85 % 0.0 mm
10:52 7.9 °C 4.8 °C 1006.3 hPa South 11.3 km/h 17.7 km/h 81 % 0.0 mm
10:57 7.9 °C 5.0 °C 1006.3 hPa ESE 9.7 km/h 22.5 km/h 82 % 0.0 mm
11:02 8.1 °C 5.2 °C 1006.3 hPa ESE 6.4 km/h 22.5 km/h 82 % 0.0 mm
11:07 8.2 °C 5.1 °C 1006.0 hPa South 4.8 km/h 19.3 km/h 81 % 0.0 mm
11:12 8.5 °C 5.4 °C 1006.0 hPa SSE 9.7 km/h 20.9 km/h 81 % 0.0 mm
11:17 8.5 °C 5.2 °C 1006.0 hPa SSE 9.7 km/h 20.9 km/h 80 % 0.0 mm
11:22 8.4 °C 4.8 °C 1006.0 hPa SSW 11.3 km/h 20.9 km/h 78 % 0.0 mm
11:27 8.4 °C 5.0 °C 1006.0 hPa ESE 12.9 km/h 20.9 km/h 79 % 0.0 mm
11:32 8.4 °C 5.0 °C 1006.0 hPa ESE 6.4 km/h 20.9 km/h 79 % 0.0 mm
11:37 8.7 °C 5.3 °C 1005.6 hPa SSE 12.9 km/h 20.9 km/h 79 % 0.0 mm
11:42 8.7 °C 5.3 °C 1005.6 hPa SSE 4.8 km/h 22.5 km/h 79 % 0.0 mm
11:47 8.7 °C 4.9 °C 1005.3 hPa South 11.3 km/h 22.5 km/h 77 % 0.0 mm
11:52 8.5 °C 4.5 °C 1005.0 hPa SE 6.4 km/h 22.5 km/h 76 % 0.0 mm
11:57 8.4 °C 4.6 °C 1005.0 hPa SE 6.4 km/h 22.5 km/h 77 % 0.0 mm
12:02 8.3 °C 4.5 °C 1005.0 hPa SSE 1.6 km/h 22.5 km/h 77 % 0.0 mm
12:07 8.3 °C 4.7 °C 1005.0 hPa South 8.0 km/h 19.3 km/h 78 % 0.0 mm
12:12 8.4 °C 4.8 °C 1005.0 hPa SW 3.2 km/h 17.7 km/h 78 % 0.0 mm
12:17 8.4 °C 4.8 °C 1005.0 hPa SE 6.4 km/h 17.7 km/h 78 % 0.0 mm
12:22 8.4 °C 4.8 °C 1005.0 hPa SSW 3.2 km/h 17.7 km/h 78 % 0.0 mm
12:27 8.5 °C 4.7 °C 1005.0 hPa SSW 4.8 km/h 12.9 km/h 77 % 0.0 mm
12:32 8.6 °C 5.0 °C 1005.0 hPa SSE 4.8 km/h 17.7 km/h 78 % 0.0 mm
12:42 8.7 °C 5.3 °C 1005.0 hPa South 9.7 km/h 16.1 km/h 79 % 0.0 mm
12:47 8.7 °C 5.3 °C 1005.0 hPa South 6.4 km/h 16.1 km/h 79 % 0.0 mm
12:57 8.8 °C 5.2 °C 1005.0 hPa SSW 12.9 km/h 19.3 km/h 78 % 0.0 mm
13:02 8.8 °C 4.8 °C 1005.0 hPa SSW 19.3 km/h 24.1 km/h 76 % 0.0 mm
13:07 8.8 °C 4.8 °C 1005.0 hPa SSW 22.5 km/h 33.8 km/h 76 % 0.0 mm
13:12 8.6 °C 4.6 °C 1004.6 hPa SW 35.4 km/h 35.4 km/h 76 % 0.0 mm
13:17 8.4 °C 5.0 °C 1004.6 hPa South 19.3 km/h 35.4 km/h 79 % 0.0 mm
13:22 8.2 °C 4.4 °C 1004.6 hPa SW 43.4 km/h 43.4 km/h 77 % 0.0 mm
13:27 7.8 °C 4.4 °C 1004.6 hPa SSW 29.0 km/h 49.9 km/h 79 % 0.5 mm
13:32 7.5 °C 4.6 °C 1004.3 hPa SSW 30.6 km/h 49.9 km/h 82 % 0.5 mm
13:37 7.2 °C 4.3 °C 1004.3 hPa SSW 35.4 km/h 49.9 km/h 82 % 0.8 mm
13:42 7.1 °C 4.4 °C 1004.3 hPa SSW 9.7 km/h 46.7 km/h 83 % 1.3 mm
13:47 6.9 °C 4.6 °C 1003.9 hPa SSE 9.7 km/h 40.2 km/h 85 % 1.3 mm
13:52 7.1 °C 4.6 °C 1003.9 hPa South 16.1 km/h 40.2 km/h 84 % 1.5 mm
13:57 7.2 °C 4.8 °C 1003.6 hPa SSE 6.4 km/h 32.2 km/h 85 % 1.5 mm
14:02 7.2 °C 4.7 °C 1003.6 hPa SSE 8.0 km/h 32.2 km/h 84 % 1.5 mm
14:07 7.2 °C 4.7 °C 1003.6 hPa SSW 14.5 km/h 30.6 km/h 84 % 1.5 mm
14:12 7.1 °C 4.7 °C 1003.3 hPa SSE 9.7 km/h 37.0 km/h 85 % 1.5 mm
14:17 7.1 °C 4.9 °C 1003.6 hPa SSE 11.3 km/h 37.0 km/h 86 % 1.5 mm
14:22 6.9 °C 4.9 °C 1003.3 hPa SSE 14.5 km/h 37.0 km/h 87 % 1.3 mm
14:32 6.8 °C 5.0 °C 1002.9 hPa ESE 8.0 km/h 25.7 km/h 88 % 1.3 mm
14:37 6.9 °C 5.1 °C 1002.6 hPa SSE 4.8 km/h 20.9 km/h 88 % 0.8 mm
14:42 6.9 °C 5.1 °C 1002.6 hPa SE 4.8 km/h 19.3 km/h 88 % 0.5 mm
14:47 6.8 °C 5.0 °C 1002.6 hPa SSE 12.9 km/h 19.3 km/h 88 % 0.5 mm
14:52 6.9 °C 5.1 °C 1002.6 hPa SE 4.8 km/h 19.3 km/h 88 % 0.5 mm
14:57 6.9 °C 5.1 °C 1002.3 hPa ESE 9.7 km/h 17.7 km/h 88 % 0.5 mm
15:02 6.9 °C 5.1 °C 1002.3 hPa ESE 9.7 km/h 17.7 km/h 88 % 0.5 mm
15:07 6.9 °C 5.2 °C 1002.3 hPa SE 6.4 km/h 17.7 km/h 89 % 0.5 mm
15:12 6.9 °C 5.1 °C 1002.3 hPa SSW 8.0 km/h 19.3 km/h 88 % 0.5 mm
15:17 7.0 °C 5.1 °C 1002.3 hPa SE 6.4 km/h 19.3 km/h 88 % 0.5 mm
15:22 7.1 °C 5.2 °C 1002.3 hPa South 12.9 km/h 17.7 km/h 88 % 0.5 mm
15:27 7.2 °C 5.2 °C 1002.3 hPa SSW 6.4 km/h 25.7 km/h 87 % 0.5 mm
15:32 7.2 °C 5.2 °C 1002.3 hPa South 11.3 km/h 25.7 km/h 87 % 0.3 mm
15:37 7.3 °C 5.1 °C 1002.3 hPa South 8.0 km/h 24.1 km/h 86 % 0.3 mm
15:42 7.4 °C 5.2 °C 1002.3 hPa SSE 6.4 km/h 29.0 km/h 86 % 0.3 mm
15:47 7.4 °C 5.2 °C 1002.3 hPa SSE 6.4 km/h 29.0 km/h 86 % 0.3 mm
15:52 7.5 °C 5.3 °C 1002.3 hPa SW 11.3 km/h 29.0 km/h 86 % 0.3 mm
16:02 8.1 °C 5.6 °C 1002.3 hPa SSE 16.1 km/h 32.2 km/h 84 % 0.3 mm
16:07 8.3 °C 5.6 °C 1002.3 hPa SSE 16.1 km/h 35.4 km/h 83 % 0.3 mm
16:12 8.4 °C 5.7 °C 1002.3 hPa SW 25.7 km/h 35.4 km/h 83 % 0.0 mm
16:17 8.5 °C 5.8 °C 1001.9 hPa SSW 12.9 km/h 32.2 km/h 83 % 0.0 mm
16:22 8.5 °C 5.6 °C 1001.9 hPa SSW 24.1 km/h 35.4 km/h 82 % 0.0 mm
16:27 8.4 °C 5.7 °C 1002.3 hPa SSW 30.6 km/h 35.4 km/h 83 % 0.0 mm
16:32 8.3 °C 5.9 °C 1002.3 hPa South 24.1 km/h 33.8 km/h 85 % 0.0 mm
16:37 8.2 °C 6.0 °C 1002.3 hPa SSW 27.4 km/h 46.7 km/h 86 % 0.0 mm
16:42 8.1 °C 6.1 °C 1002.3 hPa SSW 12.9 km/h 46.7 km/h 87 % 0.0 mm
16:47 8.1 °C 6.1 °C 1002.3 hPa SSW 17.7 km/h 46.7 km/h 87 % 0.0 mm
16:52 8.1 °C 5.9 °C 1002.3 hPa SSW 20.9 km/h 38.6 km/h 86 % 0.0 mm
16:57 8.2 °C 6.0 °C 1002.3 hPa SSW 11.3 km/h 33.8 km/h 86 % 0.0 mm
17:02 8.3 °C 6.1 °C 1002.3 hPa SW 25.7 km/h 33.8 km/h 86 % 0.0 mm
17:07 8.4 °C 6.0 °C 1002.3 hPa SSW 20.9 km/h 32.2 km/h 85 % 0.0 mm
17:12 8.6 °C 6.0 °C 1002.3 hPa SW 19.3 km/h 35.4 km/h 84 % 0.0 mm
17:17 8.6 °C 6.0 °C 1002.6 hPa SW 25.7 km/h 35.4 km/h 84 % 0.0 mm
17:22 8.8 °C 6.2 °C 1002.3 hPa SW 27.4 km/h 35.4 km/h 84 % 0.0 mm
17:27 9.1 °C 5.8 °C 1002.6 hPa SW 27.4 km/h 51.5 km/h 80 % 0.3 mm
17:32 9.2 °C 5.7 °C 1002.9 hPa WSW 37.0 km/h 51.5 km/h 79 % 0.3 mm
17:37 9.1 °C 5.8 °C 1002.6 hPa SW 22.5 km/h 51.5 km/h 80 % 0.3 mm
17:42 9.1 °C 6.0 °C 1002.9 hPa SW 20.9 km/h 49.9 km/h 81 % 0.3 mm
17:47 8.9 °C 5.8 °C 1002.9 hPa SW 33.8 km/h 49.9 km/h 81 % 0.3 mm
17:52 8.9 °C 5.8 °C 1003.3 hPa SW 24.1 km/h 51.5 km/h 81 % 0.3 mm
17:57 8.9 °C 5.8 °C 1003.3 hPa SW 33.8 km/h 51.5 km/h 81 % 0.3 mm
18:02 8.9 °C 5.6 °C 1003.3 hPa SSW 22.5 km/h 41.8 km/h 80 % 0.3 mm
18:07 8.9 °C 5.6 °C 1003.6 hPa SSW 17.7 km/h 46.7 km/h 80 % 0.3 mm
18:12 8.8 °C 5.7 °C 1003.6 hPa WSW 30.6 km/h 46.7 km/h 81 % 0.3 mm
18:17 8.6 °C 5.5 °C 1003.6 hPa SW 20.9 km/h 43.4 km/h 81 % 0.3 mm
18:22 8.5 °C 5.6 °C 1003.9 hPa SW 20.9 km/h 43.4 km/h 82 % 0.3 mm
18:27 8.4 °C 5.5 °C 1003.9 hPa SSW 25.7 km/h 49.9 km/h 82 % 0.0 mm
18:32 8.4 °C 5.5 °C 1004.3 hPa SW 32.2 km/h 49.9 km/h 82 % 0.0 mm
18:42 8.3 °C 5.4 °C 1003.9 hPa SW 20.9 km/h 43.4 km/h 82 % 0.0 mm
18:47 8.2 °C 5.5 °C 1004.3 hPa SW 24.1 km/h 37.0 km/h 83 % 0.0 mm
18:52 8.2 °C 5.7 °C 1004.6 hPa SW 17.7 km/h 35.4 km/h 84 % 0.0 mm
18:57 8.0 °C 5.6 °C 1004.6 hPa WSW 11.3 km/h 45.1 km/h 85 % 0.0 mm
19:02 7.9 °C 5.5 °C 1004.6 hPa WSW 22.5 km/h 45.1 km/h 85 % 0.0 mm
19:07 8.0 °C 5.5 °C 1005.0 hPa SW 20.9 km/h 41.8 km/h 84 % 0.0 mm
19:12 7.9 °C 5.4 °C 1005.0 hPa SW 27.4 km/h 35.4 km/h 84 % 0.0 mm
19:17 7.9 °C 5.2 °C 1005.0 hPa WSW 25.7 km/h 35.4 km/h 83 % 0.0 mm
19:22 7.9 °C 5.0 °C 1005.3 hPa WSW 24.1 km/h 38.6 km/h 82 % 0.0 mm
19:27 7.8 °C 4.9 °C 1005.3 hPa WSW 38.6 km/h 38.6 km/h 82 % 0.0 mm
19:32 7.8 °C 4.9 °C 1005.6 hPa SW 9.7 km/h 51.5 km/h 82 % 0.0 mm
19:37 7.8 °C 4.9 °C 1005.6 hPa SW 19.3 km/h 51.5 km/h 82 % 0.0 mm
19:42 7.8 °C 4.9 °C 1005.6 hPa SSW 25.7 km/h 51.5 km/h 82 % 0.0 mm
19:47 7.7 °C 5.0 °C 1006.0 hPa SW 9.7 km/h 43.4 km/h 83 % 0.0 mm
19:52 7.6 °C 4.9 °C 1006.0 hPa SW 16.1 km/h 43.4 km/h 83 % 0.0 mm
19:57 7.7 °C 4.8 °C 1006.0 hPa SW 22.5 km/h 33.8 km/h 82 % 0.3 mm
20:02 7.7 °C 4.8 °C 1006.3 hPa SSW 19.3 km/h 29.0 km/h 82 % 0.3 mm
20:07 7.7 °C 4.8 °C 1006.3 hPa SW 17.7 km/h 30.6 km/h 82 % 0.3 mm
20:17 7.7 °C 4.8 °C 1006.7 hPa SW 25.7 km/h 30.6 km/h 82 % 0.3 mm
20:22 7.6 °C 4.9 °C 1006.7 hPa SW 27.4 km/h 32.2 km/h 83 % 0.3 mm
20:27 7.4 °C 4.9 °C 1006.7 hPa SW 17.7 km/h 33.8 km/h 84 % 0.3 mm
20:32 7.3 °C 4.8 °C 1006.7 hPa SW 17.7 km/h 33.8 km/h 84 % 0.3 mm
20:37 7.3 °C 4.8 °C 1006.7 hPa SW 22.5 km/h 33.8 km/h 84 % 0.3 mm
20:42 7.4 °C 4.7 °C 1007.0 hPa WSW 24.1 km/h 29.0 km/h 83 % 0.3 mm
20:47 7.5 °C 4.8 °C 1007.0 hPa SW 12.9 km/h 32.2 km/h 83 % 0.3 mm
20:57 7.4 °C 4.9 °C 1007.3 hPa SSW 11.3 km/h 32.2 km/h 84 % 0.0 mm
21:02 7.2 °C 4.8 °C 1007.3 hPa SW 8.0 km/h 27.4 km/h 85 % 0.0 mm
21:07 7.1 °C 4.9 °C 1007.3 hPa SW 17.7 km/h 24.1 km/h 86 % 0.0 mm
21:12 6.9 °C 4.7 °C 1007.0 hPa SW 17.7 km/h 24.1 km/h 86 % 0.0 mm
21:17 6.9 °C 4.7 °C 1007.0 hPa South 9.7 km/h 25.7 km/h 86 % 0.0 mm
21:22 6.7 °C 4.5 °C 1006.7 hPa SW 8.0 km/h 25.7 km/h 86 % 0.0 mm
21:27 6.5 °C 4.3 °C 1006.7 hPa SW 16.1 km/h 25.7 km/h 86 % 0.0 mm
21:32 6.4 °C 4.4 °C 1006.7 hPa SW 14.5 km/h 22.5 km/h 87 % 0.0 mm
21:37 6.3 °C 4.5 °C 1006.7 hPa SSW 11.3 km/h 20.9 km/h 88 % 0.0 mm
21:42 6.1 °C 4.3 °C 1006.7 hPa SSW 8.0 km/h 20.9 km/h 88 % 0.0 mm
21:47 5.8 °C 4.1 °C 1006.7 hPa SSW 4.8 km/h 20.9 km/h 89 % 0.0 mm
21:52 5.8 °C 4.3 °C 1006.7 hPa SSW 8.0 km/h 16.1 km/h 90 % 0.0 mm
21:57 5.9 °C 4.2 °C 1006.7 hPa SW 11.3 km/h 12.9 km/h 89 % 0.0 mm
22:02 5.9 °C 4.2 °C 1006.7 hPa SSW 4.8 km/h 14.5 km/h 89 % 0.0 mm
22:07 5.8 °C 4.1 °C 1006.7 hPa SSE 4.8 km/h 14.5 km/h 89 % 0.0 mm
22:12 5.6 °C 3.9 °C 1006.7 hPa SW 9.7 km/h 14.5 km/h 89 % 0.0 mm
22:17 5.5 °C 4.0 °C 1006.7 hPa South 14.5 km/h 14.5 km/h 90 % 0.0 mm
22:27 5.4 °C 3.9 °C 1006.7 hPa SSW 12.9 km/h 17.7 km/h 90 % 0.0 mm
22:32 5.4 °C 3.9 °C 1006.7 hPa SSW 9.7 km/h 17.7 km/h 90 % 0.0 mm
22:37 5.3 °C 3.8 °C 1006.7 hPa SSW 8.0 km/h 17.7 km/h 90 % 0.0 mm
22:42 5.3 °C 3.8 °C 1006.7 hPa SSW 14.5 km/h 17.7 km/h 90 % 0.0 mm
22:47 5.3 °C 3.8 °C 1006.7 hPa SSW 11.3 km/h 17.7 km/h 90 % 0.0 mm
22:52 5.2 °C 3.7 °C 1006.7 hPa SW 12.9 km/h 17.7 km/h 90 % 0.0 mm
22:57 5.3 °C 3.8 °C 1006.7 hPa SSW 11.3 km/h 22.5 km/h 90 % 0.0 mm
23:02 5.2 °C 3.7 °C 1006.3 hPa SW 11.3 km/h 22.5 km/h 90 % 0.0 mm
23:07 5.2 °C 3.9 °C 1006.3 hPa SSW 11.3 km/h 22.5 km/h 91 % 0.0 mm
23:12 5.2 °C 3.7 °C 1006.3 hPa SSW 12.9 km/h 17.7 km/h 90 % 0.0 mm
23:17 5.3 °C 3.6 °C 1006.3 hPa SSW 11.3 km/h 17.7 km/h 89 % 0.0 mm
23:22 5.4 °C 3.7 °C 1006.7 hPa SSW 9.7 km/h 22.5 km/h 89 % 0.0 mm
23:27 5.3 °C 3.6 °C 1006.7 hPa South 12.9 km/h 22.5 km/h 89 % 0.0 mm
23:32 5.2 °C 3.5 °C 1006.7 hPa SSW 9.7 km/h 20.9 km/h 89 % 0.0 mm
23:37 5.2 °C 3.5 °C 1006.3 hPa South 12.9 km/h 17.7 km/h 89 % 0.0 mm
23:42 5.2 °C 3.5 °C 1006.3 hPa South 9.7 km/h 17.7 km/h 89 % 0.0 mm
23:47 5.1 °C 3.4 °C 1006.3 hPa SSE 3.2 km/h 17.7 km/h 89 % 0.0 mm
23:52 5.1 °C 3.4 °C 1006.3 hPa South 4.8 km/h 17.7 km/h 89 % 0.0 mm
23:57 4.9 °C 3.2 °C 1006.3 hPa South 4.8 km/h 12.9 km/h 89 % 0.0 mm
Meteo18
Compliments of Weather Underground - 4 mb

Script developed by  Jim McMurry - jmcmurry@mwt.net Adapted for the template by  Wim van der Kuil - Leuven-Template.eu

You find our weather info also at:

European Weather Network

Weather Underground

Equipment we use:

Weather-station
Davis Vue

Weather-program
Meteohub

Weather-server
Raspberry PI 2 B+

Provider
1 and 1

Davis Vue

Meteohub

Raspberry PI 2 B+

1 and 1